This is the latest recevied weather packets stored in our database for station/object SM6LNJ-13. If no packets are shown the sender has not sent any weather packets the latest 10 day(s).
| Time | Temp. | Humidity | Pressure | Rain* | Wind** | Luminosity | Snow |
|---|---|---|---|---|---|---|---|
| 1777644346 | 18.33° C | 47% | 1439.3 hPa | 0 mm | - | - | - |
| 1777643986 | 18.89° C | 46% | 1439.8 hPa | 0 mm | - | - | - |
| 1777643513 | 18.89° C | 46% | 1440.2 hPa | 0 mm | - | - | - |
| 1777643392 | 18.33° C | 46% | 1439.3 hPa | 0 mm | - | - | - |
| 1777634505 | 15.56° C | 54% | 1432.1 hPa | 0 mm | - | - | - |
| 1777634386 | 15° C | 54% | 1431.5 hPa | 0 mm | - | - | - |
| 1777634146 | 15° C | 53% | 1431.4 hPa | 0 mm | - | - | - |
| 1777634025 | 15° C | 53% | 1431.4 hPa | 0 mm | - | - | - |
| 1777633906 | 15.56° C | 54% | 1431.9 hPa | 0 mm | - | - | - |
| 1777633785 | 15° C | 54% | 1431.6 hPa | 0 mm | - | - | - |
| 1777633666 | 15° C | 54% | 1431.1 hPa | 0 mm | - | - | - |
| 1777633546 | 15° C | 54% | 1430.9 hPa | 0 mm | - | - | - |
| 1777633425 | 15° C | 54% | 1430.7 hPa | 0 mm | - | - | - |
| 1777633186 | 15° C | 54% | 1430.6 hPa | 0 mm | - | - | - |
| 1777633072 | 15° C | 54% | 1431 hPa | 0 mm | - | - | - |
| 1777632946 | 15° C | 54% | 1431.1 hPa | 0 mm | - | - | - |
| 1777632706 | 15° C | 55% | 1431 hPa | 0 mm | - | - | - |
| 1777632585 | 15° C | 56% | 1430.5 hPa | 0 mm | - | - | - |
| 1777632466 | 15° C | 55% | 1430.4 hPa | 0 mm | - | - | - |
| 1777632345 | 15° C | 55% | 1430.9 hPa | 0 mm | - | - | - |
| 1777632226 | 15° C | 55% | 1430.8 hPa | 0 mm | - | - | - |
| 1777632105 | 15° C | 55% | 1431.4 hPa | 0 mm | - | - | - |
| 1777631986 | 15° C | 55% | 1431.6 hPa | 0 mm | - | - | - |
| 1777631865 | 15° C | 54% | 1431.6 hPa | 0 mm | - | - | - |
| 1777631745 | 15.56° C | 55% | 1432 hPa | 0 mm | - | - | - |
* Rain latest hour (hover to see other rain measurements)
** Current wind speed in m/s (hover to see current wind gust speed)